Time;durP1;ratioP1;P1;durP2;ratioP2;P2;SDS_P1;SDS_P2;PMS_P1;PMS_P2;Temp;Humidity;BMP_temperature;BMP_pressure;BME280_temperature;BME280_humidity;BME280_pressure;Samples;Min_cycle;Max_cycle;Signal;HPM_P1;HPM_P2
2023/01/21 00:01:02;;;;;;;6.60;4.90;;;3.20;99.90;;;;;;5025856;28;20567;-72
2023/01/21 00:03:48;;;;;;;6.80;3.80;;;3.10;99.90;;;;;;5032196;28;20212;-71
2023/01/21 00:06:34;;;;;;;8.30;3.65;;;3.10;99.90;;;;;;5017672;28;20206;-73
2023/01/21 00:09:20;;;;;;;6.22;4.28;;;3.10;99.90;;;;;;5022280;28;20248;-72
2023/01/21 00:12:06;;;;;;;5.10;3.80;;;3.10;99.90;;;;;;5026590;28;21862;-73
2023/01/21 00:14:52;;;;;;;4.40;3.13;;;3.10;99.90;;;;;;5033955;28;20220;-73
2023/01/21 00:17:38;;;;;;;5.60;3.95;;;3.10;99.90;;;;;;5028719;28;20232;-72
2023/01/21 00:20:24;;;;;;;6.00;4.82;;;3.10;99.90;;;;;;5027915;28;20298;-73
2023/01/21 00:23:10;;;;;;;5.10;3.95;;;3.10;99.90;;;;;;5028626;28;20292;-72
2023/01/21 00:25:59;;;;;;;5.20;3.50;;;3.10;99.90;;;;;;5023319;28;20209;-73
2023/01/21 00:28:45;;;;;;;6.18;5.20;;;3.10;99.90;;;;;;5026765;28;20726;-73
2023/01/21 00:31:32;;;;;;;7.10;5.10;;;3.20;99.90;;;;;;5031502;28;20209;-72
2023/01/21 00:34:18;;;;;;;5.43;4.90;;;3.20;99.90;;;;;;5036272;28;20208;-72
2023/01/21 00:37:04;;;;;;;5.75;4.95;;;3.10;99.90;;;;;;5031505;28;20706;-72
2023/01/21 00:39:49;;;;;;;8.10;6.03;;;3.10;99.90;;;;;;5037758;28;20231;-73
2023/01/21 00:42:35;;;;;;;7.40;5.75;;;3.00;99.90;;;;;;5038878;28;20217;-73
2023/01/21 00:45:21;;;;;;;7.22;5.65;;;3.00;99.90;;;;;;5021689;28;20788;-74
2023/01/21 00:48:08;;;;;;;7.70;5.13;;;3.00;99.90;;;;;;5029886;28;20278;-73
2023/01/21 00:50:54;;;;;;;6.25;5.28;;;3.10;99.90;;;;;;5036515;28;20209;-73
2023/01/21 00:53:41;;;;;;;6.28;5.20;;;3.10;99.90;;;;;;5047325;28;20201;-73
2023/01/21 00:56:27;;;;;;;6.65;5.75;;;3.10;99.90;;;;;;5023049;28;20205;-73
2023/01/21 00:59:12;;;;;;;9.10;6.93;;;3.00;99.90;;;;;;5030270;28;20248;-73
2023/01/21 01:01:58;;;;;;;8.32;7.20;;;3.00;99.90;;;;;;5037996;28;20202;-73
2023/01/21 01:04:45;;;;;;;7.78;6.38;;;3.00;99.90;;;;;;5028568;28;20895;-73
2023/01/21 01:07:31;;;;;;;9.80;7.00;;;3.00;99.90;;;;;;5031542;28;20205;-74
2023/01/21 01:10:17;;;;;;;8.65;7.40;;;3.00;99.90;;;;;;5030352;28;20217;-73
2023/01/21 01:13:03;;;;;;;11.55;7.72;;;2.90;99.90;;;;;;5035964;28;20741;-73
2023/01/21 01:15:51;;;;;;;7.97;6.47;;;3.00;99.90;;;;;;5025105;28;20252;-73
2023/01/21 01:18:37;;;;;;;8.23;5.80;;;3.00;99.90;;;;;;5031283;28;20760;-73
2023/01/21 01:21:24;;;;;;;8.82;6.60;;;3.00;99.90;;;;;;5033024;28;20799;-73
2023/01/21 01:24:10;;;;;;;8.98;7.05;;;3.00;99.90;;;;;;5026248;28;20801;-73
2023/01/21 01:26:55;;;;;;;10.60;6.88;;;3.00;99.90;;;;;;5032095;28;20197;-74
2023/01/21 01:29:41;;;;;;;10.30;7.28;;;3.10;99.90;;;;;;5032217;28;20291;-73
2023/01/21 01:32:27;;;;;;;9.40;7.38;;;3.00;99.90;;;;;;5029661;28;20357;-73
2023/01/21 01:35:13;;;;;;;8.60;6.63;;;3.00;99.90;;;;;;5026219;28;20210;-74
2023/01/21 01:38:06;;;;;;;20.00;10.52;;;2.90;99.90;;;;;;5039575;28;20347;-73
2023/01/21 01:40:53;;;;;;;7.80;7.00;;;2.90;99.90;;;;;;5033676;28;20511;-73
2023/01/21 01:43:59;;;;;;;9.50;8.00;;;2.80;99.90;;;;;;5030635;28;20272;-73
2023/01/21 01:46:45;;;;;;;9.63;7.63;;;2.80;99.90;;;;;;5039627;28;20329;-73
2023/01/21 01:49:30;;;;;;;10.38;8.75;;;2.80;99.90;;;;;;5035728;28;20700;-74
2023/01/21 01:52:17;;;;;;;13.93;9.65;;;2.90;99.90;;;;;;5031096;28;20335;-73
2023/01/21 01:55:06;;;;;;;12.75;10.70;;;2.90;99.90;;;;;;5025313;28;20705;-73
2023/01/21 01:57:54;;;;;;;14.63;11.60;;;2.90;99.90;;;;;;5033773;28;20583;-73
2023/01/21 02:00:40;;;;;;;13.52;11.20;;;2.90;99.90;;;;;;5030359;28;20730;-72
2023/01/21 02:03:44;;;;;;;18.48;11.98;;;2.90;99.90;;;;;;5039214;28;20204;-74
2023/01/21 02:06:30;;;;;;;16.60;12.52;;;2.90;99.90;;;;;;5022965;28;20321;-73
2023/01/21 02:09:16;;;;;;;13.98;11.93;;;2.90;99.90;;;;;;5031805;28;20332;-73
2023/01/21 02:12:05;;;;;;;15.48;12.45;;;2.70;99.90;;;;;;5036934;28;20251;-73
2023/01/21 02:14:51;;;;;;;18.10;12.40;;;2.70;99.90;;;;;;5023322;28;20602;-73
2023/01/21 02:17:46;;;;;;;17.38;12.25;;;2.70;99.90;;;;;;5027424;28;20201;-72
2023/01/21 02:21:13;;;;;;;17.67;11.85;;;2.60;99.90;;;;;;5047264;28;20708;-73
2023/01/21 02:24:21;;;;;;;13.95;11.63;;;2.50;99.90;;;;;;5034617;28;20336;-73
2023/01/21 02:27:32;;;;;;;13.85;10.82;;;2.40;99.90;;;;;;5039422;28;20209;-72
2023/01/21 02:30:59;;;;;;;14.52;11.40;;;2.40;99.90;;;;;;5028345;28;20865;-72
2023/01/21 02:33:55;;;;;;;15.77;11.75;;;2.20;99.90;;;;;;4944027;28;20217;-73
2023/01/21 02:36:59;;;;;;;12.88;10.70;;;2.20;99.90;;;;;;5037964;28;20256;-72
2023/01/21 02:40:03;;;;;;;13.98;11.23;;;2.10;99.90;;;;;;5039443;28;20244;-72
2023/01/21 02:42:54;;;;;;;19.35;14.35;;;1.90;99.90;;;;;;5035321;28;20225;-75
2023/01/21 02:45:47;;;;;;;19.75;15.27;;;1.80;99.90;;;;;;5031174;28;20205;-73
2023/01/21 02:48:37;;;;;;;17.45;14.02;;;1.70;99.90;;;;;;5029913;28;20325;-73
2023/01/21 02:51:24;;;;;;;22.80;15.95;;;1.70;99.90;;;;;;5029287;28;20201;-72
2023/01/21 02:54:14;;;;;;;20.83;16.65;;;1.50;99.90;;;;;;5028589;28;20317;-72
2023/01/21 02:57:00;;;;;;;26.02;17.25;;;1.60;99.90;;;;;;5028324;28;20329;-72
2023/01/21 02:59:49;;;;;;;22.70;17.10;;;1.60;99.90;;;;;;5028739;28;20702;-72
2023/01/21 03:02:53;;;;;;;20.85;15.50;;;1.60;99.90;;;;;;5033227;28;20206;-74
2023/01/21 03:05:52;;;;;;;20.67;16.52;;;1.50;99.90;;;;;;5038312;28;20652;-72
2023/01/21 03:08:45;;;;;;;22.65;17.60;;;1.60;99.90;;;;;;5031510;28;20225;-72
2023/01/21 03:11:31;;;;;;;25.15;17.38;;;1.50;99.90;;;;;;5023354;28;20194;-73
2023/01/21 03:17:34;;;;;;;25.17;18.65;;;1.50;99.90;;;;;;5037859;28;20224;-72
2023/01/21 03:20:24;;;;;;;30.60;21.15;;;1.50;99.90;;;;;;5034094;28;20317;-72
2023/01/21 03:23:14;;;;;;;25.17;18.42;;;1.60;99.90;;;;;;5021314;28;20306;-73
2023/01/21 03:26:02;;;;;;;26.02;19.27;;;1.60;99.90;;;;;;5030200;28;20373;-73
2023/01/21 03:28:54;;;;;;;25.90;19.55;;;1.50;99.90;;;;;;5031776;28;20781;-72
2023/01/21 03:31:41;;;;;;;26.77;19.10;;;1.50;99.90;;;;;;5035244;28;20674;-73
2023/01/21 03:34:29;;;;;;;27.83;18.73;;;1.60;99.90;;;;;;5029135;28;20235;-72
2023/01/21 03:37:21;;;;;;;25.83;18.08;;;1.70;99.90;;;;;;5028062;28;20206;-71
2023/01/21 03:40:17;;;;;;;24.95;18.50;;;1.70;99.90;;;;;;5031766;28;20241;-73
2023/01/21 03:43:04;;;;;;;27.40;19.00;;;1.70;99.90;;;;;;5025855;28;20197;-74
2023/01/21 03:45:58;;;;;;;27.00;19.45;;;1.80;99.90;;;;;;5037983;28;20707;-72
2023/01/21 03:48:47;;;;;;;29.60;18.75;;;1.80;99.90;;;;;;5026750;28;20241;-72
2023/01/21 03:51:36;;;;;;;26.88;19.38;;;1.80;99.90;;;;;;5029677;28;20340;-72
2023/01/21 03:54:22;;;;;;;27.85;19.92;;;1.80;99.90;;;;;;5032399;28;20214;-73
2023/01/21 03:57:08;;;;;;;25.35;18.73;;;1.90;99.90;;;;;;5037808;28;20255;-72
2023/01/21 03:59:55;;;;;;;26.65;18.40;;;1.80;99.90;;;;;;5031103;28;20249;-72
2023/01/21 04:02:41;;;;;;;28.60;19.00;;;1.80;99.90;;;;;;5028355;28;20204;-74
2023/01/21 04:05:26;;;;;;;29.15;19.90;;;1.70;99.90;;;;;;5028715;28;20619;-72
2023/01/21 04:08:12;;;;;;;34.20;20.85;;;1.70;99.90;;;;;;5030754;28;20564;-73
2023/01/21 04:10:58;;;;;;;28.63;19.60;;;1.60;99.90;;;;;;5032309;28;20537;-73
2023/01/21 04:13:43;;;;;;;27.75;20.35;;;1.60;99.90;;;;;;5026178;28;20209;-72
2023/01/21 04:16:31;;;;;;;31.58;20.73;;;1.50;99.90;;;;;;5023638;28;20206;-72
2023/01/21 04:19:16;;;;;;;30.80;19.25;;;1.50;99.90;;;;;;5025642;28;20226;-73
2023/01/21 04:22:02;;;;;;;27.65;18.73;;;1.50;99.90;;;;;;5025424;28;20487;-72
2023/01/21 04:24:48;;;;;;;22.92;16.88;;;1.50;99.90;;;;;;5031406;28;20562;-73
2023/01/21 04:27:34;;;;;;;25.77;18.20;;;1.50;99.90;;;;;;5034074;28;20773;-73
2023/01/21 04:30:19;;;;;;;26.30;16.88;;;1.40;99.90;;;;;;5022532;28;20219;-72
2023/01/21 04:33:07;;;;;;;27.23;16.65;;;1.50;99.90;;;;;;5024537;28;20205;-73
2023/01/21 04:35:56;;;;;;;24.73;17.17;;;1.40;99.90;;;;;;5034568;28;20201;-73
2023/01/21 04:38:42;;;;;;;23.95;15.50;;;1.40;99.90;;;;;;5023847;28;20237;-74
2023/01/21 04:41:27;;;;;;;21.23;14.05;;;1.40;99.90;;;;;;5031921;28;20234;-72
2023/01/21 04:44:13;;;;;;;20.88;14.38;;;1.20;99.90;;;;;;5026998;28;20574;-72
2023/01/21 04:46:59;;;;;;;24.17;14.57;;;1.10;99.90;;;;;;5031267;28;20282;-74
2023/01/21 04:49:47;;;;;;;18.75;13.00;;;1.10;99.90;;;;;;5029409;28;20249;-73
2023/01/21 04:52:33;;;;;;;21.10;14.57;;;1.10;99.90;;;;;;5026420;28;20201;-72
2023/01/21 04:55:18;;;;;;;22.42;13.70;;;1.10;99.90;;;;;;5028644;28;20260;-72
2023/01/21 04:58:04;;;;;;;19.33;13.27;;;1.10;99.90;;;;;;5032402;28;20615;-72
2023/01/21 05:00:50;;;;;;;18.77;13.05;;;1.10;99.90;;;;;;5029475;28;20237;-72
2023/01/21 05:03:36;;;;;;;18.75;12.40;;;1.10;99.90;;;;;;5027398;28;20206;-73
2023/01/21 05:06:23;;;;;;;19.70;13.30;;;1.00;99.90;;;;;;5038936;28;20193;-72
2023/01/21 05:09:08;;;;;;;16.20;12.48;;;1.00;99.90;;;;;;5039261;28;20607;-72
2023/01/21 05:11:54;;;;;;;22.92;11.93;;;1.00;99.90;;;;;;5024750;28;20225;-72
2023/01/21 05:14:39;;;;;;;16.88;11.00;;;1.00;99.90;;;;;;5032892;28;20205;-72
2023/01/21 05:17:25;;;;;;;20.48;13.13;;;1.00;99.90;;;;;;5036252;28;20625;-72
2023/01/21 05:20:11;;;;;;;20.75;13.25;;;0.90;99.90;;;;;;5024551;28;20228;-72
2023/01/21 05:22:58;;;;;;;25.20;12.10;;;0.90;99.90;;;;;;5029910;28;20314;-72
2023/01/21 05:25:44;;;;;;;16.85;11.18;;;0.90;99.90;;;;;;5033691;28;20678;-72
2023/01/21 05:28:30;;;;;;;16.65;10.43;;;0.80;99.90;;;;;;5035170;28;20202;-73
2023/01/21 05:31:16;;;;;;;18.58;11.20;;;0.90;99.90;;;;;;5027933;28;20211;-73
2023/01/21 05:34:01;;;;;;;16.25;11.63;;;0.90;99.90;;;;;;5030701;28;20457;-72
2023/01/21 05:36:47;;;;;;;15.18;11.30;;;0.80;99.90;;;;;;5031592;28;20717;-73
2023/01/21 05:39:34;;;;;;;19.75;11.65;;;0.80;99.90;;;;;;5035890;28;20224;-73
2023/01/21 05:42:19;;;;;;;15.30;12.18;;;0.80;99.90;;;;;;5027536;28;20201;-73
2023/01/21 05:45:06;;;;;;;16.42;11.95;;;0.70;99.90;;;;;;5028480;28;20766;-72
2023/01/21 05:47:52;;;;;;;18.10;12.07;;;0.50;99.90;;;;;;5028708;28;20340;-72
2023/01/21 05:50:38;;;;;;;17.88;11.10;;;0.40;99.90;;;;;;5023733;28;20786;-72
2023/01/21 05:53:24;;;;;;;19.65;11.90;;;0.30;99.90;;;;;;5037335;28;20249;-72
2023/01/21 05:56:11;;;;;;;14.82;10.50;;;0.10;99.90;;;;;;5037153;28;20212;-73
2023/01/21 05:58:57;;;;;;;16.23;11.13;;;0.00;99.90;;;;;;5055843;22;20228;-71
2023/01/21 06:01:42;;;;;;;14.00;9.90;;;0.00;99.90;;;;;;5029904;28;20224;-74
2023/01/21 06:04:29;;;;;;;17.33;11.63;;;-0.10;99.90;;;;;;5034405;28;20313;-74
2023/01/21 06:07:15;;;;;;;15.70;11.82;;;0.00;99.90;;;;;;5041217;28;20201;-73
2023/01/21 06:10:00;;;;;;;26.05;18.45;;;-0.10;99.90;;;;;;5033845;28;20315;-74
2023/01/21 06:12:50;;;;;;;22.98;16.55;;;-0.20;99.90;;;;;;5035757;28;20210;-73
2023/01/21 06:15:35;;;;;;;21.83;13.77;;;-0.30;99.90;;;;;;5033603;28;20598;-73
2023/01/21 06:18:21;;;;;;;16.60;11.07;;;-0.30;99.90;;;;;;5034249;28;20597;-73
2023/01/21 06:21:07;;;;;;;16.58;10.63;;;-0.30;99.90;;;;;;5029272;28;20583;-73
2023/01/21 06:23:52;;;;;;;14.30;9.23;;;-0.40;99.90;;;;;;5041300;28;20573;-73
2023/01/21 06:26:38;;;;;;;19.88;12.68;;;-0.50;99.90;;;;;;5037400;28;20328;-74
2023/01/21 06:29:25;;;;;;;18.75;12.40;;;-0.50;99.90;;;;;;5033673;28;20241;-73
2023/01/21 06:32:10;;;;;;;17.25;11.00;;;-0.50;99.90;;;;;;5025938;28;20205;-73
2023/01/21 06:34:56;;;;;;;14.80;11.38;;;-0.60;99.90;;;;;;5030587;28;20209;-74
2023/01/21 06:37:42;;;;;;;17.45;10.55;;;-0.60;99.90;;;;;;5037303;28;20224;-73
2023/01/21 06:40:27;;;;;;;16.10;11.50;;;-0.70;99.90;;;;;;5029139;28;20315;-73
2023/01/21 06:43:12;;;;;;;13.77;9.90;;;-0.80;99.90;;;;;;5029647;28;20206;-73
2023/01/21 06:45:59;;;;;;;19.25;11.60;;;-0.80;99.90;;;;;;5035807;28;20201;-74
2023/01/21 06:48:45;;;;;;;20.30;15.23;;;-0.80;99.90;;;;;;5036595;28;20750;-73
2023/01/21 06:51:31;;;;;;;27.95;19.52;;;-0.90;99.90;;;;;;5040703;28;20197;-73
2023/01/21 06:54:17;;;;;;;24.85;18.05;;;-1.00;99.90;;;;;;5029859;28;20213;-73
2023/01/21 06:57:02;;;;;;;25.60;17.02;;;-1.10;99.90;;;;;;5030516;28;20669;-73
2023/01/21 06:59:48;;;;;;;23.80;15.05;;;-1.20;99.90;;;;;;5027124;28;20288;-74
2023/01/21 07:02:35;;;;;;;15.77;11.10;;;-1.20;99.90;;;;;;5032658;28;20269;-73
2023/01/21 07:05:21;;;;;;;15.20;12.30;;;-1.20;99.90;;;;;;5039977;28;20201;-73
2023/01/21 07:08:06;;;;;;;14.57;12.15;;;-1.30;99.90;;;;;;5027350;28;20209;-73
2023/01/21 07:10:52;;;;;;;20.48;12.10;;;-1.30;99.90;;;;;;5023068;28;20225;-73
2023/01/21 07:13:38;;;;;;;19.90;14.82;;;-1.40;99.90;;;;;;5030823;28;20201;-73
2023/01/21 07:16:24;;;;;;;19.10;16.17;;;-1.50;99.90;;;;;;5035240;28;20578;-73
2023/01/21 07:19:11;;;;;;;20.60;15.45;;;-1.50;99.90;;;;;;5029571;28;20931;-73
2023/01/21 07:21:56;;;;;;;21.13;14.60;;;-1.30;99.90;;;;;;5033072;28;20229;-73
2023/01/21 07:24:42;;;;;;;21.35;15.25;;;-1.30;99.90;;;;;;5028853;28;20205;-74
2023/01/21 07:27:28;;;;;;;25.33;18.35;;;-1.10;99.90;;;;;;5024270;28;20197;-73
2023/01/21 07:30:16;;;;;;;23.25;16.13;;;-1.10;99.90;;;;;;5024931;28;20264;-73
2023/01/21 07:33:05;;;;;;;25.35;18.10;;;-0.90;99.90;;;;;;5034767;28;20316;-73
2023/01/21 07:35:52;;;;;;;23.77;16.48;;;-0.80;99.90;;;;;;5035631;28;20316;-73
2023/01/21 07:38:38;;;;;;;23.65;17.02;;;-0.60;99.90;;;;;;5026719;28;20246;-73
2023/01/21 07:41:24;;;;;;;20.50;14.70;;;-0.60;99.90;;;;;;5038403;28;20365;-73
2023/01/21 07:44:10;;;;;;;25.40;17.20;;;-0.50;99.90;;;;;;5029440;28;20259;-73
2023/01/21 07:46:55;;;;;;;27.00;20.08;;;-0.40;99.90;;;;;;5035632;28;20213;-74
2023/01/21 07:49:41;;;;;;;31.42;19.27;;;-0.30;99.90;;;;;;5027883;28;20225;-73
2023/01/21 07:52:28;;;;;;;30.13;19.50;;;-0.30;99.90;;;;;;5026072;28;20197;-73
2023/01/21 07:55:13;;;;;;;29.33;19.80;;;-0.40;99.90;;;;;;5031183;28;20566;-73
2023/01/21 07:58:00;;;;;;;33.35;22.75;;;-0.30;99.90;;;;;;5027671;28;20566;-73
2023/01/21 08:00:45;;;;;;;31.17;20.08;;;-0.30;99.90;;;;;;5027966;28;20241;-73
2023/01/21 08:03:31;;;;;;;26.15;18.10;;;-0.30;99.90;;;;;;5028524;28;20301;-74
2023/01/21 08:06:16;;;;;;;31.30;21.88;;;-0.20;99.90;;;;;;5037798;28;20200;-73
2023/01/21 08:09:04;;;;;;;31.67;21.00;;;-0.10;99.90;;;;;;5028561;28;20200;-73
2023/01/21 08:11:49;;;;;;;25.45;18.42;;;-0.10;99.90;;;;;;5025741;28;20328;-74
2023/01/21 08:14:37;;;;;;;39.88;23.15;;;0.00;99.90;;;;;;5027281;28;20217;-73
2023/01/21 08:17:23;;;;;;;36.58;22.75;;;0.00;99.90;;;;;;5027023;28;20392;-73
2023/01/21 08:20:09;;;;;;;37.38;21.80;;;0.10;99.90;;;;;;5035724;28;20232;-73
2023/01/21 08:22:59;;;;;;;38.67;23.17;;;0.10;99.90;;;;;;5039600;28;20770;-73
2023/01/21 08:25:45;;;;;;;34.00;22.30;;;0.10;99.90;;;;;;5029597;28;20198;-74
2023/01/21 08:28:31;;;;;;;32.55;20.80;;;0.10;99.90;;;;;;5025387;28;20217;-73
2023/01/21 08:31:17;;;;;;;33.30;22.65;;;0.10;99.90;;;;;;5030489;28;20244;-73
2023/01/21 08:34:03;;;;;;;36.25;20.00;;;0.20;99.90;;;;;;5033598;28;20198;-73
2023/01/21 08:36:48;;;;;;;29.98;19.65;;;0.20;99.90;;;;;;5033302;28;20292;-73
2023/01/21 08:39:34;;;;;;;28.95;20.48;;;0.30;99.90;;;;;;5028805;28;20225;-73
2023/01/21 08:42:21;;;;;;;32.33;20.63;;;0.40;99.90;;;;;;5029439;28;20230;-74
2023/01/21 08:45:08;;;;;;;29.13;20.98;;;0.50;99.90;;;;;;5033689;28;20204;-73
2023/01/21 08:47:54;;;;;;;27.60;18.23;;;0.50;99.90;;;;;;5028251;28;20573;-73
2023/01/21 08:50:39;;;;;;;29.17;20.48;;;0.50;99.90;;;;;;5026069;28;20225;-73
2023/01/21 08:53:25;;;;;;;33.88;21.42;;;0.50;99.90;;;;;;5027742;28;20203;-73
2023/01/21 08:56:11;;;;;;;26.45;19.40;;;0.60;99.90;;;;;;5040305;28;20240;-72
2023/01/21 08:58:59;;;;;;;30.33;20.77;;;0.60;99.90;;;;;;5032853;28;20213;-73
2023/01/21 09:01:44;;;;;;;37.80;21.58;;;0.60;99.90;;;;;;5034911;28;20225;-73
2023/01/21 09:04:30;;;;;;;32.47;21.08;;;0.70;99.90;;;;;;5032871;28;20244;-73
2023/01/21 09:07:16;;;;;;;33.55;23.23;;;0.80;99.90;;;;;;5029488;28;20209;-73
2023/01/21 09:10:01;;;;;;;33.72;21.90;;;0.80;99.90;;;;;;5030548;28;20221;-73
2023/01/21 09:12:47;;;;;;;29.73;21.10;;;0.80;99.90;;;;;;5032097;28;20317;-72
2023/01/21 09:15:38;;;;;;;35.67;21.83;;;0.80;99.90;;;;;;5031894;28;20197;-72
2023/01/21 09:18:24;;;;;;;42.28;23.00;;;0.80;99.90;;;;;;5034848;28;20204;-72
2023/01/21 09:21:11;;;;;;;41.25;23.60;;;0.80;99.90;;;;;;5043027;28;20310;-73
2023/01/21 09:23:57;;;;;;;35.22;21.13;;;0.90;99.90;;;;;;5043209;28;20208;-73
2023/01/21 09:26:43;;;;;;;32.80;23.05;;;0.90;99.90;;;;;;5038685;28;21256;-73
2023/01/21 09:29:29;;;;;;;34.17;21.25;;;1.00;99.90;;;;;;5033074;28;20240;-72
2023/01/21 09:32:16;;;;;;;33.38;22.67;;;1.10;99.90;;;;;;5046157;28;20221;-72
2023/01/21 09:35:02;;;;;;;30.23;20.63;;;1.10;99.90;;;;;;5044649;28;20259;-71
2023/01/21 09:37:47;;;;;;;32.53;20.63;;;1.20;99.90;;;;;;5029380;28;20209;-72
2023/01/21 09:40:34;;;;;;;34.50;21.88;;;1.20;99.90;;;;;;5031907;28;20226;-72
2023/01/21 09:43:25;;;;;;;31.95;21.02;;;1.20;99.90;;;;;;5029857;28;20280;-72
2023/01/21 09:46:17;;;;;;;35.88;23.70;;;1.30;99.90;;;;;;5029858;28;20220;-73
2023/01/21 09:49:08;;;;;;;32.53;22.08;;;1.20;99.90;;;;;;5030222;28;20677;-73
2023/01/21 09:52:00;;;;;;;33.55;21.60;;;1.30;99.90;;;;;;5028906;28;20205;-73
2023/01/21 09:54:46;;;;;;;33.08;22.85;;;1.30;99.90;;;;;;5030426;28;20205;-72
2023/01/21 09:58:19;;;;;;;36.60;23.25;;;1.20;99.90;;;;;;5031737;28;20222;-72
2023/01/21 10:01:11;;;;;;;35.17;20.50;;;1.30;99.90;;;;;;5025647;28;20288;-72
2023/01/21 10:04:02;;;;;;;35.22;23.85;;;1.40;99.90;;;;;;5027092;28;20209;-73
2023/01/21 10:06:53;;;;;;;34.53;22.23;;;1.50;99.90;;;;;;5025662;28;20244;-72
2023/01/21 10:09:48;;;;;;;33.97;21.80;;;1.50;99.90;;;;;;5035271;28;20257;-73
2023/01/21 10:12:55;;;;;;;34.00;23.75;;;1.40;99.90;;;;;;5027783;28;20220;-72
2023/01/21 10:15:59;;;;;;;35.40;22.17;;;1.30;99.90;;;;;;5022388;28;20244;-72
2023/01/21 10:18:48;;;;;;;34.33;21.27;;;1.40;99.90;;;;;;5027831;28;20714;-72
2023/01/21 10:21:39;;;;;;;31.33;20.33;;;1.40;99.90;;;;;;5028443;28;20230;-71
2023/01/21 10:24:32;;;;;;;36.15;22.60;;;1.40;99.90;;;;;;5028846;28;20288;-72
2023/01/21 10:27:21;;;;;;;34.97;22.15;;;1.30;99.90;;;;;;5029524;28;20229;-73
2023/01/21 10:30:24;;;;;;;38.72;23.08;;;1.30;99.90;;;;;;5021135;28;20718;-73
2023/01/21 10:33:17;;;;;;;35.88;23.13;;;1.40;99.90;;;;;;5024291;28;20275;-72
2023/01/21 10:36:25;;;;;;;38.97;22.90;;;1.40;99.90;;;;;;5028337;28;20693;-72
2023/01/21 10:39:19;;;;;;;30.85;21.73;;;1.50;99.90;;;;;;5029719;28;20595;-73
2023/01/21 10:42:17;;;;;;;36.67;23.45;;;1.50;99.90;;;;;;5040099;28;20291;-73
2023/01/21 10:45:13;;;;;;;33.40;21.02;;;1.40;99.90;;;;;;5034291;28;20667;-73
2023/01/21 10:48:05;;;;;;;31.17;19.52;;;1.60;99.90;;;;;;5034319;28;20252;-73
2023/01/21 10:50:56;;;;;;;30.02;19.58;;;1.70;99.90;;;;;;5044777;28;20236;-72
2023/01/21 10:53:48;;;;;;;27.30;19.10;;;1.80;99.90;;;;;;5040678;28;20229;-73
2023/01/21 10:56:44;;;;;;;30.65;19.05;;;1.80;99.90;;;;;;5029381;28;20206;-72
2023/01/21 10:59:33;;;;;;;31.10;19.33;;;1.70;99.90;;;;;;5028193;28;20237;-73
2023/01/21 11:02:24;;;;;;;31.98;19.63;;;1.80;99.90;;;;;;5035563;28;20703;-73
2023/01/21 11:05:13;;;;;;;34.20;18.80;;;1.70;99.90;;;;;;5031180;28;20225;-73
2023/01/21 11:07:59;;;;;;;31.25;17.63;;;1.70;99.90;;;;;;5024484;28;20260;-73
2023/01/21 11:10:49;;;;;;;27.73;19.77;;;1.70;99.90;;;;;;5025274;28;21154;-72
2023/01/21 11:13:35;;;;;;;29.77;18.30;;;1.60;99.90;;;;;;5027420;28;20244;-72
2023/01/21 11:16:43;;;;;;;33.75;19.52;;;1.70;99.90;;;;;;5030671;28;20662;-73
2023/01/21 11:19:30;;;;;;;26.25;18.67;;;1.70;99.90;;;;;;5020622;28;20710;-73
2023/01/21 11:22:22;;;;;;;31.85;18.85;;;1.80;99.90;;;;;;5025768;28;20302;-72
2023/01/21 11:25:31;;;;;;;28.63;18.83;;;1.80;99.90;;;;;;5026411;28;20304;-72
2023/01/21 11:28:23;;;;;;;33.13;21.02;;;1.80;99.90;;;;;;5019909;28;20221;-73
2023/01/21 11:31:12;;;;;;;30.42;20.05;;;1.80;99.90;;;;;;5031109;28;20244;-73
2023/01/21 11:34:05;;;;;;;34.65;20.35;;;1.80;99.90;;;;;;5037599;28;20200;-73
2023/01/21 11:37:02;;;;;;;30.38;21.30;;;1.80;99.90;;;;;;5032959;28;20213;-72
2023/01/21 11:39:52;;;;;;;34.28;21.38;;;1.80;99.90;;;;;;5025382;28;20228;-72
2023/01/21 11:42:47;;;;;;;36.08;22.10;;;1.70;99.90;;;;;;5025914;28;20226;-74
2023/01/21 11:45:35;;;;;;;33.28;21.02;;;1.60;99.90;;;;;;5015069;28;20623;-73
2023/01/21 11:48:21;;;;;;;30.98;19.35;;;1.70;99.90;;;;;;5014065;28;20701;-73
2023/01/21 11:51:10;;;;;;;38.75;22.75;;;1.80;99.90;;;;;;5015232;28;20708;-71
2023/01/21 11:54:13;;;;;;;33.08;21.38;;;1.80;99.90;;;;;;5025828;28;20209;-71
2023/01/21 11:57:00;;;;;;;32.55;20.67;;;1.80;99.90;;;;;;5024278;28;20544;-73
2023/01/21 11:59:47;;;;;;;34.63;23.50;;;1.80;99.90;;;;;;5042097;22;20239;-72
2023/01/21 12:02:37;;;;;;;32.25;20.38;;;1.70;99.90;;;;;;5053785;28;20219;-72
2023/01/21 12:05:32;;;;;;;32.05;20.95;;;1.80;99.90;;;;;;5061356;28;20205;-72
2023/01/21 12:08:22;;;;;;;29.35;19.38;;;1.80;99.90;;;;;;5045342;28;20706;-72
2023/01/21 12:11:10;;;;;;;30.00;20.15;;;1.90;99.90;;;;;;5050420;28;20651;-71
2023/01/21 12:14:04;;;;;;;27.17;16.67;;;1.90;99.90;;;;;;5051943;28;20200;-71
2023/01/21 12:17:00;;;;;;;31.23;18.95;;;2.00;99.90;;;;;;5045805;28;20372;-72
2023/01/21 12:19:59;;;;;;;29.63;19.02;;;2.10;99.90;;;;;;5046076;28;20611;-72
2023/01/21 12:23:05;;;;;;;27.92;17.70;;;2.20;99.90;;;;;;5047021;28;20221;-72
2023/01/21 12:25:58;;;;;;;27.35;18.13;;;2.30;99.90;;;;;;5052798;28;20251;-71
2023/01/21 12:29:10;;;;;;;24.10;16.75;;;2.30;99.90;;;;;;5034112;28;20205;-72
2023/01/21 12:32:01;;;;;;;23.73;14.48;;;2.30;99.90;;;;;;5041000;28;20204;-71
2023/01/21 12:34:51;;;;;;;23.10;14.25;;;2.30;99.90;;;;;;5041313;28;20212;-72
2023/01/21 12:37:45;;;;;;;19.88;13.07;;;2.40;99.90;;;;;;5041428;28;20205;-72
2023/01/21 12:40:34;;;;;;;23.55;15.20;;;2.30;99.90;;;;;;5052981;28;20221;-72
2023/01/21 12:43:26;;;;;;;22.58;16.42;;;2.20;99.90;;;;;;5045565;28;20649;-72
2023/01/21 12:46:16;;;;;;;22.42;14.65;;;2.10;99.90;;;;;;5050194;28;20209;-72
2023/01/21 12:49:06;;;;;;;24.33;15.68;;;2.10;99.90;;;;;;5051752;28;20213;-71
2023/01/21 12:51:56;;;;;;;23.35;14.30;;;2.00;99.90;;;;;;5047418;28;20208;-72
2023/01/21 12:54:48;;;;;;;21.05;14.27;;;2.00;99.90;;;;;;5053049;28;20796;-72
2023/01/21 12:57:39;;;;;;;25.63;13.30;;;2.00;99.90;;;;;;5046164;28;20267;-72
2023/01/21 13:00:29;;;;;;;26.33;14.77;;;2.10;99.90;;;;;;5052336;28;20612;-72
2023/01/21 13:03:24;;;;;;;29.60;15.85;;;2.00;99.90;;;;;;5047200;28;20357;-72
2023/01/21 13:06:17;;;;;;;22.40;13.55;;;2.00;99.90;;;;;;5042317;28;20264;-72
2023/01/21 13:09:11;;;;;;;23.55;14.18;;;2.10;99.90;;;;;;5046157;28;20744;-72
2023/01/21 13:12:03;;;;;;;21.02;13.75;;;2.20;99.90;;;;;;5046511;28;20579;-72
2023/01/21 13:14:55;;;;;;;23.42;13.45;;;2.20;99.90;;;;;;5050131;28;20610;-72
2023/01/21 13:17:46;;;;;;;23.60;12.98;;;2.30;99.90;;;;;;5049095;28;20764;-72
2023/01/21 13:20:37;;;;;;;22.20;14.20;;;2.30;99.90;;;;;;5054282;28;20232;-72
2023/01/21 13:23:33;;;;;;;19.75;12.63;;;2.40;99.90;;;;;;5052924;28;20239;-72
2023/01/21 13:26:28;;;;;;;18.38;12.50;;;2.40;99.90;;;;;;5049399;28;20266;-72
2023/01/21 13:29:23;;;;;;;18.52;11.88;;;2.30;99.90;;;;;;5041778;28;20205;-72
2023/01/21 13:32:28;;;;;;;23.17;14.13;;;2.40;99.90;;;;;;5044579;28;20744;-72
2023/01/21 13:35:25;;;;;;;18.20;12.35;;;2.30;99.90;;;;;;5054091;28;20315;-72
2023/01/21 13:38:24;;;;;;;23.15;13.07;;;2.30;99.90;;;;;;5050811;28;20207;-72
2023/01/21 13:41:22;;;;;;;20.55;12.82;;;2.20;99.90;;;;;;5043740;28;20697;-72
2023/01/21 13:44:37;;;;;;;18.73;11.10;;;2.20;99.90;;;;;;5048017;28;20228;-72
2023/01/21 13:47:35;;;;;;;17.95;12.45;;;2.10;99.90;;;;;;5047807;28;20563;-72
2023/01/21 13:50:29;;;;;;;17.58;11.98;;;2.10;99.90;;;;;;5054156;28;20300;-72
2023/01/21 13:53:33;;;;;;;21.73;12.18;;;2.10;99.90;;;;;;5054064;28;20205;-72
2023/01/21 13:56:34;;;;;;;19.08;12.63;;;2.20;99.90;;;;;;5045887;28;20289;-72
2023/01/21 13:59:25;;;;;;;19.10;10.98;;;2.10;99.90;;;;;;5060334;28;20276;-73
2023/01/21 14:02:16;;;;;;;16.20;11.18;;;2.10;99.90;;;;;;5065558;28;20212;-72
2023/01/21 14:05:09;;;;;;;15.95;11.38;;;2.10;99.90;;;;;;5049160;28;20205;-72
2023/01/21 14:08:01;;;;;;;18.25;12.00;;;2.10;99.90;;;;;;5051923;28;20196;-72
2023/01/21 14:10:53;;;;;;;18.02;11.55;;;2.20;99.90;;;;;;5055726;28;20725;-72
2023/01/21 14:14:26;;;;;;;24.48;11.82;;;2.30;99.90;;;;;;5046583;28;20344;-72
2023/01/21 14:17:40;;;;;;;17.48;11.50;;;2.30;99.90;;;;;;5046110;28;20275;-71
2023/01/21 14:21:10;;;;;;;17.15;11.23;;;2.30;99.90;;;;;;5042768;28;20244;-72
2023/01/21 14:24:14;;;;;;;18.67;11.48;;;2.10;99.90;;;;;;5016026;28;20252;-72
2023/01/21 14:27:11;;;;;;;17.55;11.60;;;2.10;99.90;;;;;;5061367;28;20266;-72
2023/01/21 14:30:06;;;;;;;15.50;10.60;;;2.10;99.90;;;;;;5058064;28;20228;-72
2023/01/21 14:32:55;;;;;;;18.92;13.10;;;2.20;99.90;;;;;;5062104;28;20319;-72
2023/01/21 14:35:47;;;;;;;19.77;11.85;;;2.20;99.90;;;;;;5041377;28;20559;-71
2023/01/21 14:38:42;;;;;;;39.03;17.17;;;2.20;99.90;;;;;;5058324;28;20685;-72